Redesdale, United Kingdom
Current Conditions -  °F | °C
As of 1:50 AM on Tuesday 23 Dec 2014 (Local Time) from EGQM Reporting Station
Light Rain Light Rain  
Wind Chill: 50°   Ceiling: 7000
Heat Index: 50°   Visibility: 6mi
Dew Point: 46°   Wind: 12mph
Humidity: 87%   Direction: 240°WSW
Pressure: 29.65"   Gusts: NA
Location:  55.28°N, 2.28°W
Report Text: EGQM 230150Z AUTO 24010KT 9999 -RADZ FEW020/// BKN070/// 10/08 Q1004
Loading
Personal Weather Stations






























Interactive Weather Map New forecast layout! Learn more

10-Day Weather Forecast

Advertisements
Track Severe Weather on mobile